Time;durP1;ratioP1;P1;durP2;ratioP2;P2;SDS_P1;SDS_P2;PMS_P1;PMS_P2;Temp;Humidity;BMP_temperature;BMP_pressure;BME280_temperature;BME280_humidity;BME280_pressure;Samples;Min_cycle;Max_cycle;Signal;HPM_P1;HPM_P2
2023/04/30 00:01:27;;;;;;;8.60;8.30;;;21.20;63.30;;;;;;5073499;28;20965;-66
2023/04/30 00:03:55;;;;;;;8.90;8.60;;;21.20;63.40;;;;;;5073410;28;20986;-66
2023/04/30 00:06:22;;;;;;;8.03;7.83;;;21.10;63.40;;;;;;5073327;28;20501;-66
2023/04/30 00:08:49;;;;;;;8.20;8.00;;;21.10;63.40;;;;;;5072782;28;21045;-66
2023/04/30 00:11:16;;;;;;;8.20;7.90;;;21.10;63.40;;;;;;5073429;28;20878;-66
2023/04/30 00:13:43;;;;;;;8.20;8.00;;;21.10;63.40;;;;;;5073231;28;20471;-66
2023/04/30 00:16:10;;;;;;;8.67;8.43;;;21.10;63.40;;;;;;5073104;28;20479;-66
2023/04/30 00:18:37;;;;;;;8.00;7.80;;;21.10;63.40;;;;;;5072773;28;20467;-66
2023/04/30 00:21:06;;;;;;;8.50;8.23;;;21.10;63.50;;;;;;5072100;28;20487;-66
2023/04/30 00:23:32;;;;;;;9.30;9.03;;;21.00;63.40;;;;;;5072972;28;20483;-66
2023/04/30 00:25:59;;;;;;;8.73;8.43;;;21.00;63.50;;;;;;5073081;28;20475;-66
2023/04/30 00:28:26;;;;;;;8.20;7.90;;;21.00;63.50;;;;;;5072397;28;20560;-66
2023/04/30 00:30:53;;;;;;;8.13;7.93;;;21.00;63.50;;;;;;5073206;28;20443;-66
2023/04/30 00:33:20;;;;;;;8.17;7.97;;;21.00;63.60;;;;;;5072853;28;20535;-65
2023/04/30 00:35:47;;;;;;;9.73;9.43;;;21.00;63.70;;;;;;5072976;28;20442;-66
2023/04/30 00:38:16;;;;;;;8.20;7.90;;;21.00;63.60;;;;;;5072640;28;20513;-66
2023/04/30 00:40:44;;;;;;;8.40;8.20;;;20.90;63.50;;;;;;5072668;28;20505;-66
2023/04/30 00:43:11;;;;;;;8.90;8.60;;;20.90;63.50;;;;;;5072482;28;20509;-66
2023/04/30 00:45:38;;;;;;;8.30;8.10;;;20.90;63.60;;;;;;5072579;28;20483;-66
2023/04/30 00:48:05;;;;;;;8.10;7.90;;;20.90;63.60;;;;;;5072128;28;21057;-66
2023/04/30 00:50:35;;;;;;;8.03;7.83;;;20.90;63.60;;;;;;5072671;28;20791;-66
2023/04/30 00:53:03;;;;;;;8.03;7.83;;;20.90;63.50;;;;;;5072359;28;21002;-66
2023/04/30 00:55:31;;;;;;;7.93;7.73;;;20.90;63.50;;;;;;5072425;28;20479;-66
2023/04/30 00:57:59;;;;;;;8.60;8.40;;;20.90;63.50;;;;;;5072205;28;20997;-66
2023/04/30 01:00:27;;;;;;;8.77;8.47;;;20.90;63.50;;;;;;5072301;28;20447;-66
2023/04/30 01:02:56;;;;;;;8.07;7.80;;;20.80;63.40;;;;;;5072323;28;20483;-66
2023/04/30 01:05:23;;;;;;;7.30;7.10;;;20.80;63.50;;;;;;5072172;28;20447;-66
2023/04/30 01:07:50;;;;;;;8.13;7.93;;;20.80;63.50;;;;;;5071898;28;20605;-66
2023/04/30 01:10:18;;;;;;;8.20;7.90;;;20.80;63.40;;;;;;5071769;28;20470;-66
2023/04/30 01:12:53;;;;;;;8.57;8.27;;;20.80;63.40;;;;;;5071832;28;20954;-66
2023/04/30 01:15:28;;;;;;;8.53;8.23;;;20.80;63.40;;;;;;5071820;28;20506;-66
2023/04/30 01:17:57;;;;;;;8.30;8.00;;;20.80;63.50;;;;;;5071876;28;20467;-66
2023/04/30 01:20:26;;;;;;;8.70;8.40;;;20.80;63.50;;;;;;5072055;28;20935;-66
2023/04/30 01:23:00;;;;;;;8.10;7.90;;;20.80;63.50;;;;;;5071932;28;20494;-66
2023/04/30 01:25:44;;;;;;;7.73;7.53;;;20.80;63.40;;;;;;5071666;28;20483;-64
2023/04/30 01:28:15;;;;;;;8.60;8.40;;;20.80;63.50;;;;;;5071531;28;20854;-66
2023/04/30 01:30:43;;;;;;;8.13;7.93;;;20.80;63.60;;;;;;5072069;28;21019;-66
2023/04/30 01:33:10;;;;;;;8.43;8.23;;;20.80;63.70;;;;;;5071815;28;20452;-66
2023/04/30 01:36:01;;;;;;;8.70;8.40;;;20.70;63.70;;;;;;5071397;28;20823;-66
2023/04/30 01:38:40;;;;;;;7.83;7.63;;;20.70;63.80;;;;;;5071520;28;20994;-66
2023/04/30 01:41:20;;;;;;;7.70;7.50;;;20.70;63.90;;;;;;5071660;28;20531;-66
2023/04/30 01:43:55;;;;;;;8.93;8.63;;;20.70;64.00;;;;;;5071687;28;20451;-66
2023/04/30 01:46:27;;;;;;;7.50;7.30;;;20.70;64.20;;;;;;5071587;28;20470;-66
2023/04/30 01:49:03;;;;;;;7.80;7.60;;;20.70;64.30;;;;;;5071744;28;21025;-66
2023/04/30 01:51:37;;;;;;;7.93;7.40;;;20.70;64.30;;;;;;5071850;28;20512;-66
2023/04/30 01:54:09;;;;;;;8.43;8.13;;;20.70;64.20;;;;;;5071674;28;20527;-66
2023/04/30 01:56:40;;;;;;;8.17;7.77;;;20.70;64.30;;;;;;5071435;28;20526;-66
2023/04/30 01:59:09;;;;;;;7.50;7.30;;;20.70;64.20;;;;;;5071279;28;20479;-66
2023/04/30 02:01:37;;;;;;;7.30;7.10;;;20.70;64.20;;;;;;5071490;28;20483;-66
2023/04/30 02:04:04;;;;;;;8.37;8.17;;;20.70;64.30;;;;;;5071399;28;20456;-66
2023/04/30 02:06:31;;;;;;;8.30;8.10;;;20.70;64.20;;;;;;5071327;28;20452;-67
2023/04/30 02:09:02;;;;;;;7.90;7.70;;;20.70;64.20;;;;;;5071300;28;20839;-66
2023/04/30 02:11:28;;;;;;;7.90;7.70;;;20.70;64.10;;;;;;5071399;28;20542;-66
2023/04/30 02:13:55;;;;;;;7.40;7.20;;;20.70;64.10;;;;;;5071377;28;20576;-66
2023/04/30 02:16:24;;;;;;;7.40;7.20;;;20.60;63.90;;;;;;5071041;28;20447;-66
2023/04/30 02:18:51;;;;;;;6.90;6.80;;;20.70;64.10;;;;;;5071110;28;20970;-66
2023/04/30 02:21:18;;;;;;;6.97;6.87;;;20.60;64.00;;;;;;5071252;28;20544;-66
2023/04/30 02:23:45;;;;;;;6.97;6.77;;;20.60;64.00;;;;;;5075260;28;20447;-66
2023/04/30 02:26:12;;;;;;;7.67;7.47;;;20.60;64.00;;;;;;5075138;28;20452;-68
2023/04/30 02:28:38;;;;;;;7.40;7.30;;;20.60;64.00;;;;;;5075125;28;20530;-66
2023/04/30 02:31:05;;;;;;;6.93;6.73;;;20.60;64.00;;;;;;5075370;28;20535;-66
2023/04/30 02:33:34;;;;;;;7.73;7.43;;;20.60;64.10;;;;;;5075055;28;20965;-66
2023/04/30 02:36:01;;;;;;;7.03;6.83;;;20.60;64.10;;;;;;5074929;28;20504;-66
2023/04/30 02:38:28;;;;;;;7.20;7.00;;;20.60;64.10;;;;;;5074910;28;20529;-66
2023/04/30 02:40:55;;;;;;;7.40;7.20;;;20.60;64.10;;;;;;5075159;28;20482;-66
2023/04/30 02:43:22;;;;;;;7.37;7.17;;;20.60;64.10;;;;;;5075163;28;20436;-66
2023/04/30 02:45:49;;;;;;;7.77;7.57;;;20.60;64.30;;;;;;5074868;28;20478;-66
2023/04/30 02:48:16;;;;;;;7.87;7.50;;;20.60;64.40;;;;;;5073928;28;20518;-66
2023/04/30 02:50:44;;;;;;;7.63;7.43;;;20.60;65.00;;;;;;5074852;28;20475;-66
2023/04/30 02:53:11;;;;;;;7.60;7.40;;;20.60;64.40;;;;;;5074841;28;20991;-66
2023/04/30 02:55:38;;;;;;;7.23;7.03;;;20.60;64.30;;;;;;5074655;28;20853;-65
2023/04/30 02:58:04;;;;;;;7.43;7.23;;;20.60;65.10;;;;;;5074476;28;20498;-65
2023/04/30 03:00:31;;;;;;;7.27;7.07;;;20.60;64.30;;;;;;5074323;28;20492;-66
2023/04/30 03:02:58;;;;;;;7.50;7.30;;;20.50;64.10;;;;;;5074913;28;20501;-66
2023/04/30 03:05:25;;;;;;;6.90;6.70;;;20.60;64.30;;;;;;5074486;28;20479;-66
2023/04/30 03:07:53;;;;;;;6.63;6.40;;;20.50;64.00;;;;;;5074255;28;21006;-66
2023/04/30 03:10:20;;;;;;;7.53;7.33;;;20.50;64.10;;;;;;5074440;28;20509;-66
2023/04/30 03:12:47;;;;;;;6.90;6.70;;;20.50;64.10;;;;;;5074169;28;20520;-66
2023/04/30 03:15:14;;;;;;;7.77;7.47;;;20.50;64.10;;;;;;5074506;28;20534;-65
2023/04/30 03:17:41;;;;;;;7.27;7.07;;;20.50;64.10;;;;;;5074137;28;20538;-66
2023/04/30 03:20:09;;;;;;;8.37;7.83;;;20.50;64.10;;;;;;5074331;28;20500;-66
2023/04/30 03:22:35;;;;;;;7.53;7.30;;;20.50;64.10;;;;;;5074227;28;20486;-66
2023/04/30 03:25:04;;;;;;;7.20;6.90;;;20.50;64.10;;;;;;5073846;28;20522;-65
2023/04/30 03:27:31;;;;;;;7.77;7.47;;;20.50;64.10;;;;;;5073907;28;20495;-66
2023/04/30 03:29:58;;;;;;;6.90;6.80;;;20.50;64.20;;;;;;5074211;28;20483;-65
2023/04/30 03:32:25;;;;;;;7.40;7.20;;;20.50;64.20;;;;;;5073959;28;20538;-66
2023/04/30 03:34:52;;;;;;;7.30;7.07;;;20.50;64.10;;;;;;5073297;28;20479;-66
2023/04/30 03:37:18;;;;;;;7.90;7.67;;;20.50;64.30;;;;;;5073876;28;20546;-66
2023/04/30 03:39:45;;;;;;;7.70;7.50;;;20.40;64.10;;;;;;5073823;28;20530;-66
2023/04/30 03:42:13;;;;;;;7.07;6.80;;;20.40;64.10;;;;;;5073517;28;20544;-66
2023/04/30 03:44:40;;;;;;;7.00;6.80;;;20.40;64.10;;;;;;5073747;28;20530;-65
2023/04/30 03:47:07;;;;;;;7.50;7.30;;;20.50;64.30;;;;;;5073727;28;20478;-65
2023/04/30 03:49:34;;;;;;;7.90;7.60;;;20.40;64.10;;;;;;5073729;28;20518;-66
2023/04/30 03:52:02;;;;;;;7.37;7.13;;;20.40;64.10;;;;;;5073926;28;20444;-65
2023/04/30 03:54:29;;;;;;;8.07;7.80;;;20.40;64.20;;;;;;5073013;28;20473;-66
2023/04/30 03:56:56;;;;;;;8.07;7.77;;;20.40;64.20;;;;;;5072625;28;20451;-65
2023/04/30 03:59:24;;;;;;;9.20;8.90;;;20.40;64.20;;;;;;5072538;28;20464;-65
2023/04/30 04:01:51;;;;;;;7.90;7.70;;;20.40;64.10;;;;;;5072540;28;20476;-65
2023/04/30 04:04:19;;;;;;;7.83;7.63;;;20.40;64.10;;;;;;5072982;28;20502;-66
2023/04/30 04:06:45;;;;;;;7.93;7.63;;;20.40;64.00;;;;;;5073513;28;20451;-66
2023/04/30 04:09:12;;;;;;;8.93;8.63;;;20.40;64.00;;;;;;5073079;28;20474;-65
2023/04/30 04:11:39;;;;;;;8.03;7.73;;;20.40;64.00;;;;;;5073459;28;20443;-66
2023/04/30 04:14:06;;;;;;;7.90;7.70;;;20.40;64.10;;;;;;5073341;28;20530;-66
2023/04/30 04:16:34;;;;;;;8.03;7.83;;;20.40;63.90;;;;;;5073213;28;20475;-65
2023/04/30 04:19:01;;;;;;;7.77;7.57;;;20.40;64.00;;;;;;5073091;28;20872;-66
2023/04/30 04:21:28;;;;;;;8.30;7.90;;;20.40;64.00;;;;;;5073091;28;20988;-66
2023/04/30 04:23:55;;;;;;;8.07;7.77;;;20.40;64.10;;;;;;5072718;28;20455;-66
2023/04/30 04:26:24;;;;;;;8.30;8.00;;;20.40;64.10;;;;;;5073173;28;20462;-66
2023/04/30 04:28:51;;;;;;;7.80;7.60;;;20.40;64.10;;;;;;5072715;28;21076;-66
2023/04/30 04:31:19;;;;;;;7.80;7.60;;;20.40;64.10;;;;;;5073261;28;20454;-66
2023/04/30 04:33:47;;;;;;;8.27;8.07;;;20.40;64.10;;;;;;5072663;28;20505;-66
2023/04/30 04:36:15;;;;;;;7.70;7.50;;;20.40;64.10;;;;;;5072818;28;20533;-66
2023/04/30 04:38:42;;;;;;;7.87;7.67;;;20.40;64.20;;;;;;5072657;28;20459;-66
2023/04/30 04:41:09;;;;;;;7.97;7.67;;;20.40;64.20;;;;;;5072745;28;20447;-66
2023/04/30 04:43:36;;;;;;;7.90;7.70;;;20.40;64.20;;;;;;5087551;28;20965;-66
2023/04/30 04:46:04;;;;;;;7.57;7.37;;;20.40;64.30;;;;;;5092163;28;20435;-66
2023/04/30 04:48:31;;;;;;;7.07;6.87;;;20.50;64.30;;;;;;5092762;28;20486;-66
2023/04/30 04:50:59;;;;;;;6.80;6.60;;;20.50;64.20;;;;;;5092990;28;20442;-66
2023/04/30 04:53:26;;;;;;;7.17;6.97;;;20.50;64.10;;;;;;5092789;28;20881;-66
2023/04/30 04:55:53;;;;;;;7.53;7.33;;;20.50;64.10;;;;;;5072511;28;20486;-66
2023/04/30 04:58:20;;;;;;;7.93;7.73;;;20.50;64.10;;;;;;5072314;28;20458;-66
2023/04/30 05:00:47;;;;;;;7.30;7.10;;;20.50;64.10;;;;;;5072497;28;20474;-66
2023/04/30 05:03:13;;;;;;;6.97;6.77;;;20.60;64.10;;;;;;5072411;28;20447;-66
2023/04/30 05:05:40;;;;;;;8.10;7.90;;;20.60;64.20;;;;;;5070975;28;20474;-66
2023/04/30 05:08:09;;;;;;;7.50;7.30;;;20.60;64.00;;;;;;5071793;28;20506;-66
2023/04/30 05:10:35;;;;;;;6.80;6.60;;;20.60;63.90;;;;;;5072156;28;21006;-66
2023/04/30 05:13:02;;;;;;;7.30;7.10;;;20.60;63.90;;;;;;5072258;28;20471;-66
2023/04/30 05:15:29;;;;;;;6.67;6.57;;;20.60;63.90;;;;;;5072074;28;20477;-66
2023/04/30 05:18:04;;;;;;;6.70;6.50;;;20.60;63.80;;;;;;5132778;27;20561;-66
2023/04/30 05:20:31;;;;;;;6.93;6.73;;;20.60;63.80;;;;;;5129485;27;20524;-67
2023/04/30 05:22:58;;;;;;;7.30;7.10;;;20.60;63.70;;;;;;5130124;27;20472;-66
2023/04/30 05:25:25;;;;;;;6.90;6.80;;;20.70;63.90;;;;;;5130137;27;20593;-66
2023/04/30 05:27:52;;;;;;;7.73;7.43;;;20.70;64.00;;;;;;5129650;27;20499;-67
2023/04/30 05:30:19;;;;;;;7.60;7.40;;;20.70;63.90;;;;;;5130153;27;20469;-66
2023/04/30 05:32:49;;;;;;;7.60;7.40;;;20.70;63.90;;;;;;5129758;27;20540;-67
2023/04/30 05:35:17;;;;;;;7.40;7.10;;;20.70;64.00;;;;;;5129821;27;20448;-66
2023/04/30 05:37:44;;;;;;;7.77;7.57;;;20.80;63.90;;;;;;5129490;27;20523;-66
2023/04/30 05:40:12;;;;;;;8.17;7.77;;;20.80;64.00;;;;;;5129647;27;20528;-67
2023/04/30 05:42:39;;;;;;;7.60;7.40;;;20.80;63.90;;;;;;5129196;27;20524;-66
2023/04/30 05:45:07;;;;;;;7.80;7.60;;;20.80;63.90;;;;;;5129331;27;20960;-66
2023/04/30 05:47:34;;;;;;;6.80;6.70;;;20.80;63.70;;;;;;5129341;27;20495;-65
2023/04/30 05:50:01;;;;;;;7.83;7.57;;;20.80;63.80;;;;;;5129489;27;20524;-64
2023/04/30 05:52:29;;;;;;;7.83;7.63;;;20.90;63.90;;;;;;5129465;27;21004;-66
2023/04/30 05:54:56;;;;;;;7.37;7.17;;;20.90;64.30;;;;;;5129132;27;20514;-66
2023/04/30 05:57:23;;;;;;;8.27;7.97;;;20.90;64.50;;;;;;5129373;27;20563;-66
2023/04/30 05:59:50;;;;;;;8.90;8.20;;;20.90;65.30;;;;;;5129371;27;20536;-66
2023/04/30 06:02:17;;;;;;;9.67;9.27;;;21.00;65.90;;;;;;5129369;27;20483;-66
2023/04/30 06:04:43;;;;;;;9.17;8.57;;;21.00;66.20;;;;;;5129122;27;20476;-67
2023/04/30 06:07:10;;;;;;;8.60;8.13;;;21.00;66.60;;;;;;5128408;27;20551;-65
2023/04/30 06:09:39;;;;;;;8.83;8.53;;;21.00;67.10;;;;;;5128786;27;20859;-66
2023/04/30 06:12:06;;;;;;;8.73;8.33;;;21.00;67.20;;;;;;5129151;27;20478;-66
2023/04/30 06:14:33;;;;;;;8.50;8.10;;;21.00;66.50;;;;;;5129141;27;20794;-65
2023/04/30 06:17:00;;;;;;;9.87;9.37;;;21.10;66.30;;;;;;5128767;27;20485;-65
2023/04/30 06:19:27;;;;;;;9.00;8.70;;;21.10;66.80;;;;;;5128518;27;20808;-62
2023/04/30 06:21:54;;;;;;;9.63;9.33;;;21.10;68.70;;;;;;5128863;27;20540;-63
2023/04/30 06:24:21;;;;;;;9.60;9.30;;;21.10;72.20;;;;;;5128915;27;20890;-63
2023/04/30 06:26:49;;;;;;;9.17;8.73;;;21.20;72.40;;;;;;5128665;27;20515;-63
2023/04/30 06:29:16;;;;;;;9.40;9.00;;;21.30;71.50;;;;;;5115682;27;20867;-64
2023/04/30 06:31:43;;;;;;;9.97;9.30;;;21.40;71.30;;;;;;5114709;28;21002;-63
2023/04/30 06:34:10;;;;;;;11.10;10.50;;;21.50;70.80;;;;;;5114980;28;21006;-63
2023/04/30 06:36:37;;;;;;;10.93;10.27;;;21.50;69.80;;;;;;5114999;28;20569;-64
2023/04/30 06:39:04;;;;;;;9.27;8.97;;;21.50;68.90;;;;;;5114610;28;20492;-64
2023/04/30 06:41:30;;;;;;;13.00;12.40;;;21.60;68.40;;;;;;5114606;28;20441;-64
2023/04/30 06:43:59;;;;;;;12.90;12.30;;;21.60;67.90;;;;;;5114861;28;20544;-64
2023/04/30 06:46:26;;;;;;;13.07;12.40;;;21.60;68.80;;;;;;5114790;28;20532;-64
2023/04/30 06:48:52;;;;;;;12.93;12.40;;;21.60;67.90;;;;;;5114305;28;20553;-63
2023/04/30 06:51:19;;;;;;;13.00;12.50;;;21.70;66.40;;;;;;5114606;27;20524;-63
2023/04/30 06:53:46;;;;;;;13.33;12.63;;;21.70;64.50;;;;;;5114541;28;20935;-64
2023/04/30 06:56:13;;;;;;;12.60;11.90;;;21.70;64.20;;;;;;5114594;28;20473;-65
2023/04/30 06:58:40;;;;;;;12.23;11.83;;;21.70;63.10;;;;;;5114295;28;20555;-62
2023/04/30 07:01:08;;;;;;;13.20;12.67;;;21.80;62.70;;;;;;5114349;28;20835;-64
2023/04/30 07:03:35;;;;;;;11.50;11.00;;;21.80;61.80;;;;;;5114263;28;20524;-61
2023/04/30 07:06:02;;;;;;;13.60;12.83;;;21.80;60.80;;;;;;5114439;28;20469;-64
2023/04/30 07:08:29;;;;;;;10.97;10.47;;;21.90;62.30;;;;;;5114107;28;20461;-62
2023/04/30 07:10:56;;;;;;;12.20;11.60;;;21.90;62.40;;;;;;5114346;28;20524;-62
2023/04/30 07:13:23;;;;;;;10.13;9.77;;;22.00;61.90;;;;;;5114170;28;20476;-62
2023/04/30 07:15:51;;;;;;;11.10;10.60;;;22.00;61.90;;;;;;5114068;28;20485;-62
2023/04/30 07:18:19;;;;;;;10.97;10.57;;;22.00;62.20;;;;;;5113836;28;20481;-63
2023/04/30 07:20:46;;;;;;;12.13;11.57;;;22.10;62.60;;;;;;5114218;28;20453;-63
2023/04/30 07:23:13;;;;;;;12.17;11.47;;;22.10;61.70;;;;;;5114151;28;20524;-64
2023/04/30 07:25:40;;;;;;;10.10;9.80;;;22.10;62.20;;;;;;5113846;28;20548;-64
2023/04/30 07:28:07;;;;;;;11.03;10.53;;;22.10;61.20;;;;;;5113756;28;20470;-66
2023/04/30 07:30:34;;;;;;;10.40;10.10;;;22.10;61.00;;;;;;5113927;28;20533;-61
2023/04/30 07:33:01;;;;;;;10.47;9.97;;;22.10;63.20;;;;;;5113904;28;20528;-60
2023/04/30 07:35:29;;;;;;;11.63;11.03;;;22.20;63.80;;;;;;5113821;28;20488;-61
2023/04/30 07:37:56;;;;;;;10.73;10.03;;;22.20;63.00;;;;;;5113183;28;20683;-61
2023/04/30 07:40:23;;;;;;;9.87;9.47;;;22.20;61.80;;;;;;5112807;28;20446;-61
2023/04/30 07:42:50;;;;;;;9.67;9.30;;;22.20;61.70;;;;;;5113703;27;20533;-63
2023/04/30 07:45:17;;;;;;;10.83;10.23;;;22.20;61.50;;;;;;5113449;27;20529;-63
2023/04/30 07:47:44;;;;;;;10.40;10.00;;;22.30;61.30;;;;;;5113258;28;20465;-62
2023/04/30 07:50:13;;;;;;;11.07;10.67;;;22.30;61.20;;;;;;5113537;28;20801;-63
2023/04/30 07:52:42;;;;;;;10.23;9.93;;;22.30;61.00;;;;;;5113477;28;20510;-63
2023/04/30 07:55:09;;;;;;;11.50;10.80;;;22.30;61.00;;;;;;5113264;28;20524;-62
2023/04/30 07:57:36;;;;;;;10.07;9.67;;;22.30;61.00;;;;;;5113033;28;20489;-61
2023/04/30 08:00:03;;;;;;;11.77;11.27;;;22.30;61.30;;;;;;5113303;27;20441;-61
2023/04/30 08:02:30;;;;;;;10.47;10.10;;;22.30;62.00;;;;;;5113229;28;20503;-61
2023/04/30 08:04:57;;;;;;;11.23;10.47;;;22.30;62.10;;;;;;5113174;28;20441;-62
2023/04/30 08:07:24;;;;;;;10.47;10.07;;;22.40;62.10;;;;;;5112183;28;20569;-61
2023/04/30 08:09:52;;;;;;;10.77;10.27;;;22.40;63.00;;;;;;5112424;28;20450;-62
2023/04/30 08:12:19;;;;;;;10.27;9.80;;;22.40;62.40;;;;;;5113189;28;20875;-63
2023/04/30 08:14:46;;;;;;;9.63;9.20;;;22.50;62.20;;;;;;5113058;28;20483;-63
2023/04/30 08:17:13;;;;;;;10.53;10.13;;;22.50;62.10;;;;;;5112592;28;20571;-62
2023/04/30 08:19:40;;;;;;;9.93;9.63;;;22.50;61.90;;;;;;5112594;28;20481;-62
2023/04/30 08:22:07;;;;;;;10.10;9.50;;;22.50;61.60;;;;;;5112506;28;20484;-62
2023/04/30 08:24:33;;;;;;;10.57;10.27;;;22.50;61.10;;;;;;5111783;28;20473;-61
2023/04/30 08:27:02;;;;;;;10.13;9.73;;;22.50;60.90;;;;;;5112559;28;20546;-62
2023/04/30 08:29:29;;;;;;;10.57;9.77;;;22.50;60.80;;;;;;5112756;28;20449;-63
2023/04/30 08:32:01;;;;;;;10.90;10.50;;;22.50;60.50;;;;;;5112532;28;20531;-62
2023/04/30 08:34:28;;;;;;;11.53;11.00;;;22.50;60.30;;;;;;5112627;28;20492;-62
2023/04/30 08:36:55;;;;;;;13.23;11.87;;;22.60;60.40;;;;;;5112484;28;20910;-64
2023/04/30 08:39:22;;;;;;;11.97;11.17;;;22.60;60.80;;;;;;5112717;28;20446;-64
2023/04/30 08:41:54;;;;;;;12.97;12.10;;;22.60;65.10;;;;;;5111918;28;20528;-64
2023/04/30 08:44:24;;;;;;;16.67;13.00;;;22.60;67.20;;;;;;5112684;28;20442;-63
2023/04/30 08:46:53;;;;;;;12.47;11.87;;;22.60;66.20;;;;;;5112429;28;20474;-63
2023/04/30 08:49:21;;;;;;;12.13;11.37;;;22.60;65.20;;;;;;5112385;28;20473;-64
2023/04/30 08:51:49;;;;;;;13.47;12.57;;;22.70;64.50;;;;;;5112285;28;20445;-64
2023/04/30 08:54:17;;;;;;;12.77;11.87;;;22.70;63.80;;;;;;5112111;28;20485;-64
2023/04/30 08:56:46;;;;;;;13.57;12.53;;;22.60;63.10;;;;;;5112243;28;20528;-63
2023/04/30 08:59:13;;;;;;;11.90;11.10;;;22.60;62.70;;;;;;5112256;28;20528;-62
2023/04/30 09:01:41;;;;;;;11.10;10.40;;;22.60;62.30;;;;;;5112424;28;20524;-64
2023/04/30 09:04:08;;;;;;;10.87;10.17;;;22.50;62.00;;;;;;5112314;28;20445;-60
2023/04/30 09:06:35;;;;;;;11.30;10.80;;;22.50;61.90;;;;;;5112111;28;20889;-63
2023/04/30 09:09:10;;;;;;;13.67;13.00;;;22.30;64.90;;;;;;5111991;28;21037;-63
2023/04/30 09:11:37;;;;;;;11.77;11.03;;;22.10;62.20;;;;;;5112189;28;20926;-60
2023/04/30 09:14:04;;;;;;;9.67;9.27;;;22.10;60.90;;;;;;5112253;28;20992;-59
2023/04/30 09:16:47;;;;;;;10.13;9.83;;;22.10;60.30;;;;;;5111763;28;20514;-58
2023/04/30 09:19:25;;;;;;;9.43;9.13;;;22.00;60.00;;;;;;5111905;28;20708;-56
2023/04/30 09:21:52;;;;;;;10.63;9.93;;;22.00;59.40;;;;;;5112181;28;20845;-59
2023/04/30 09:24:18;;;;;;;9.87;9.47;;;22.00;59.00;;;;;;5111980;28;20553;-60
2023/04/30 09:26:47;;;;;;;9.90;9.60;;;21.90;57.70;;;;;;5111896;28;20524;-61
2023/04/30 09:29:14;;;;;;;9.60;9.30;;;21.90;56.50;;;;;;5071616;28;20838;-57
2023/04/30 09:31:43;;;;;;;10.50;10.00;;;21.80;55.50;;;;;;5071610;28;20451;-63
2023/04/30 09:34:11;;;;;;;10.10;9.80;;;21.70;55.00;;;;;;5071383;28;20451;-57
2023/04/30 09:36:51;;;;;;;10.50;10.20;;;21.70;54.60;;;;;;5071639;28;20518;-58
2023/04/30 09:39:18;;;;;;;9.43;9.23;;;21.70;54.10;;;;;;5079019;28;20472;-60
2023/04/30 09:41:45;;;;;;;9.37;9.07;;;21.70;54.00;;;;;;5112039;28;20480;-61
2023/04/30 09:44:27;;;;;;;9.97;9.70;;;21.70;54.30;;;;;;5111861;28;20445;-60
2023/04/30 09:46:56;;;;;;;9.63;9.33;;;21.70;54.00;;;;;;5111858;28;20449;-56
2023/04/30 09:49:26;;;;;;;10.30;10.00;;;21.60;54.00;;;;;;5111420;28;20927;-59
2023/04/30 09:51:56;;;;;;;11.20;10.80;;;21.60;54.30;;;;;;5111753;28;20454;-59
2023/04/30 09:54:26;;;;;;;10.20;9.90;;;21.70;54.40;;;;;;5111709;28;20457;-62
2023/04/30 09:56:55;;;;;;;11.00;10.60;;;21.60;54.30;;;;;;5112071;28;20520;-57
2023/04/30 09:59:22;;;;;;;10.30;9.90;;;21.50;53.70;;;;;;5111352;28;20473;-59
2023/04/30 10:01:51;;;;;;;10.37;10.07;;;21.50;53.50;;;;;;5111784;28;20513;-56
2023/04/30 10:04:19;;;;;;;10.33;10.03;;;21.50;53.50;;;;;;5114207;28;20453;-57
2023/04/30 10:06:47;;;;;;;9.23;9.03;;;21.50;53.10;;;;;;5115271;28;20446;-59
2023/04/30 10:09:15;;;;;;;10.10;9.80;;;21.40;52.90;;;;;;5115356;27;20448;-59
2023/04/30 10:11:44;;;;;;;9.93;9.53;;;21.50;53.50;;;;;;5115645;28;20464;-57
2023/04/30 10:14:13;;;;;;;9.30;9.10;;;21.40;52.90;;;;;;5114799;28;20681;-55
2023/04/30 10:16:46;;;;;;;9.80;9.47;;;21.30;52.80;;;;;;5115147;28;20457;-60
2023/04/30 10:19:17;;;;;;;9.80;9.50;;;21.40;52.60;;;;;;5115207;27;20563;-60
2023/04/30 10:21:47;;;;;;;9.60;9.30;;;21.30;52.40;;;;;;5115671;28;20484;-58
2023/04/30 10:24:16;;;;;;;9.97;9.73;;;21.40;52.50;;;;;;5115208;28;20524;-59
2023/04/30 10:26:44;;;;;;;9.07;8.87;;;21.40;52.40;;;;;;5114833;28;20536;-62
2023/04/30 10:29:12;;;;;;;8.73;8.53;;;21.40;52.60;;;;;;5114988;28;20473;-60
2023/04/30 10:31:41;;;;;;;10.40;10.03;;;21.40;52.60;;;;;;5115212;28;20521;-61
2023/04/30 10:34:17;;;;;;;10.07;9.73;;;21.40;52.60;;;;;;5115050;28;20885;-60
2023/04/30 10:36:48;;;;;;;8.23;7.93;;;21.30;52.10;;;;;;5113835;28;20526;-58
2023/04/30 10:39:18;;;;;;;9.33;9.13;;;21.40;52.30;;;;;;5114589;28;20227;-62
2023/04/30 10:41:46;;;;;;;10.30;10.00;;;21.50;52.20;;;;;;5114868;28;20441;-62
2023/04/30 10:44:13;;;;;;;9.67;9.27;;;21.50;52.40;;;;;;5114771;28;20446;-58
2023/04/30 10:46:40;;;;;;;8.83;8.63;;;21.60;52.60;;;;;;5114589;28;20877;-59
2023/04/30 10:49:07;;;;;;;9.10;8.90;;;21.60;52.50;;;;;;5113881;28;20558;-62
2023/04/30 10:51:53;;;;;;;10.00;9.70;;;21.70;52.90;;;;;;5114683;28;20476;-61
2023/04/30 10:54:25;;;;;;;9.17;8.90;;;21.70;52.90;;;;;;5114724;28;20445;-61
2023/04/30 10:56:52;;;;;;;9.63;9.00;;;21.80;53.00;;;;;;5114381;28;20442;-59
2023/04/30 10:59:19;;;;;;;9.20;9.00;;;21.80;53.00;;;;;;5113649;28;20581;-61
2023/04/30 11:01:56;;;;;;;9.00;8.80;;;21.80;53.00;;;;;;5114682;28;20517;-58
2023/04/30 11:04:24;;;;;;;8.63;8.43;;;21.80;53.00;;;;;;5114378;28;20464;-61
2023/04/30 11:07:07;;;;;;;8.73;8.53;;;21.80;53.20;;;;;;5114837;28;20878;-60
2023/04/30 11:09:41;;;;;;;9.30;9.10;;;21.80;53.10;;;;;;5114958;28;20442;-64
2023/04/30 11:12:13;;;;;;;7.10;6.90;;;21.80;53.30;;;;;;5113610;28;20478;-70
2023/04/30 11:14:42;;;;;;;7.30;7.10;;;21.80;53.40;;;;;;5113222;28;20518;-61
2023/04/30 11:17:10;;;;;;;9.57;9.27;;;21.80;53.30;;;;;;5113618;28;20259;-66
2023/04/30 11:19:47;;;;;;;10.00;9.70;;;21.80;53.10;;;;;;5114002;27;20482;-60
2023/04/30 11:22:21;;;;;;;9.10;8.90;;;21.80;52.90;;;;;;5114324;28;20440;-61
2023/04/30 11:25:00;;;;;;;9.40;9.20;;;21.80;52.80;;;;;;5114178;27;20871;-62
2023/04/30 11:27:29;;;;;;;10.27;9.87;;;21.80;52.90;;;;;;5073173;28;20541;-67
2023/04/30 11:29:57;;;;;;;9.40;9.10;;;21.80;52.90;;;;;;5074035;28;20447;-66
2023/04/30 11:32:26;;;;;;;9.20;9.00;;;21.80;53.00;;;;;;5073291;28;20550;-59
2023/04/30 11:34:54;;;;;;;9.97;9.37;;;21.80;53.00;;;;;;5073151;28;20538;-55
2023/04/30 11:37:29;;;;;;;8.10;7.80;;;21.80;53.20;;;;;;5111339;28;20438;-61
2023/04/30 11:39:57;;;;;;;10.00;9.80;;;21.80;53.40;;;;;;5113870;28;20310;-60
2023/04/30 11:42:24;;;;;;;10.10;9.80;;;21.90;53.30;;;;;;5113968;28;20473;-61
2023/04/30 11:44:51;;;;;;;7.95;7.75;;;21.90;53.20;;;;;;5112489;28;20470;-61
2023/04/30 11:47:18;;;;;;;9.50;9.20;;;21.90;53.10;;;;;;5113681;28;20273;-59
2023/04/30 11:49:44;;;;;;;7.90;7.70;;;21.90;53.10;;;;;;5112755;28;20509;-62
2023/04/30 11:52:13;;;;;;;8.15;7.95;;;22.00;53.10;;;;;;5112941;28;20431;-59
2023/04/30 11:54:41;;;;;;;8.40;8.10;;;22.00;53.70;;;;;;5113474;28;20541;-58
2023/04/30 11:57:08;;;;;;;8.17;7.80;;;22.00;52.90;;;;;;5113210;27;20501;-56
2023/04/30 11:59:42;;;;;;;8.20;7.90;;;22.10;53.10;;;;;;5112541;28;20553;-55
2023/04/30 12:02:09;;;;;;;8.30;8.10;;;22.00;53.10;;;;;;5113439;27;20469;-55
2023/04/30 12:04:37;;;;;;;7.87;7.67;;;22.00;53.20;;;;;;5113242;28;20528;-55
2023/04/30 12:07:08;;;;;;;8.20;8.00;;;22.00;53.20;;;;;;5112996;28;20469;-56
2023/04/30 12:09:54;;;;;;;8.30;8.10;;;21.90;53.30;;;;;;5113048;28;20438;-54
2023/04/30 12:12:28;;;;;;;8.43;8.17;;;21.90;53.50;;;;;;5113070;28;20537;-52
2023/04/30 12:14:55;;;;;;;7.93;7.63;;;21.90;53.60;;;;;;5112972;28;20441;-55
2023/04/30 12:17:32;;;;;;;8.03;7.83;;;21.80;53.70;;;;;;5112967;28;20477;-52
2023/04/30 12:19:59;;;;;;;8.53;8.23;;;21.80;53.70;;;;;;5112952;28;20837;-54
2023/04/30 12:22:26;;;;;;;8.40;7.60;;;21.80;53.80;;;;;;5112960;28;20477;-55
2023/04/30 12:24:55;;;;;;;8.23;8.03;;;21.80;53.80;;;;;;5112738;28;20476;-55
2023/04/30 12:27:22;;;;;;;8.40;8.20;;;21.80;54.50;;;;;;5112075;28;20465;-52
2023/04/30 12:29:53;;;;;;;7.50;7.40;;;21.70;54.00;;;;;;5112698;28;21023;-58
2023/04/30 12:32:21;;;;;;;8.33;8.03;;;21.70;54.10;;;;;;5112731;28;20502;-55
2023/04/30 12:34:48;;;;;;;7.97;7.77;;;21.70;54.10;;;;;;5112643;28;20521;-57
2023/04/30 12:37:16;;;;;;;7.47;7.37;;;21.70;54.20;;;;;;5112493;28;20465;-56
2023/04/30 12:39:43;;;;;;;7.97;7.77;;;21.70;54.30;;;;;;5112367;28;20842;-56
2023/04/30 12:42:11;;;;;;;7.47;7.30;;;21.70;54.40;;;;;;5112605;28;20540;-59
2023/04/30 12:44:44;;;;;;;7.70;7.50;;;21.60;54.40;;;;;;5112384;28;20442;-54
2023/04/30 12:47:11;;;;;;;8.10;7.90;;;21.60;54.50;;;;;;5112582;28;20469;-54
2023/04/30 12:49:38;;;;;;;7.60;7.40;;;21.60;54.50;;;;;;5112205;28;20490;-58